St. Cristoph, Austria
Current Conditions -  °F | °C
As of 7:55 AM on Thursday 23 Oct 2014 (Local Time) from LIVE Reporting Station
Light Snow Light Snow  
Wind Chill: 29°   Ceiling: 1000
Heat Index: 34°   Visibility: 1.8mi
Dew Point: 30°   Wind: 6mph
Humidity: 87%   Direction: 20°NNE
Pressure: 29.97"   Gusts: 21mph
Location:  47.13°N, 10.22°E
Report Text: LIVE 230555Z 02005G18KT 3000 -SN BR OVC010 01/M01 Q1015 RMK OVC VIS MIN 3000
Loading
Personal Weather Stations






























Interactive Weather Map
Tropical Storm Tracking
New forecast layout! Learn more

10-Day Weather Forecast

Advertisements
Track Severe Weather on mobile